Time;durP1;ratioP1;P1;durP2;ratioP2;P2;SDS_P1;SDS_P2;PMS_P1;PMS_P2;Temp;Humidity;BMP_temperature;BMP_pressure;BME280_temperature;BME280_humidity;BME280_pressure;Samples;Min_cycle;Max_cycle;Signal;HPM_P1;HPM_P2
2023/07/27 00:02:25;;;;;;;0.10;0.10;;;;;;;;;;5057173;28;20041;-82
2023/07/27 00:04:52;;;;;;;0.15;0.15;;;;;;;;;;5054120;28;20041;-81
2023/07/27 00:07:20;;;;;;;0.10;0.10;;;;;;;;;;5055353;28;20075;-81
2023/07/27 00:09:45;;;;;;;0.10;0.10;;;;;;;;;;5056387;28;20041;-81
2023/07/27 00:12:11;;;;;;;0.10;0.10;;;;;;;;;;5053977;28;20048;-80
2023/07/27 00:14:36;;;;;;;0.20;0.20;;;;;;;;;;5045778;28;20418;-80
2023/07/27 00:17:01;;;;;;;0.10;0.10;;;;;;;17.36;nan;100078.38;5058836;28;20041;-80
2023/07/27 00:19:27;;;;;;;0.15;0.15;;;;;;;17.37;nan;100082.66;5050530;28;20083;-80
2023/07/27 00:21:52;;;;;;;0.10;0.10;;;;;;;;;;5049039;28;20187;-81
2023/07/27 00:24:17;;;;;;;0.10;0.10;;;;;;;;;;5044131;28;20499;-80
2023/07/27 00:26:42;;;;;;;0.10;0.10;;;;;;;17.33;nan;100068.09;5046784;28;20050;-80
2023/07/27 00:29:08;;;;;;;0.10;0.10;;;;;;;;;;5045991;28;20430;-80
2023/07/27 00:31:33;;;;;;;0.10;0.10;;;;;;;;;;5047096;28;20029;-80
2023/07/27 00:33:58;;;;;;;0.10;0.10;;;;;;;;;;5050113;28;20540;-80
2023/07/27 00:36:23;;;;;;;0.20;0.20;;;;;;;;;;5050508;28;20049;-80
2023/07/27 00:38:48;;;;;;;0.10;0.10;;;;;;;17.24;nan;100061.31;5053734;28;20037;-80
2023/07/27 00:41:14;;;;;;;0.20;0.20;;;;;;;17.24;nan;100058.66;5046762;28;20041;-79
2023/07/27 00:43:39;;;;;;;0.10;0.10;;;;;;;;;;5031625;28;20371;-79
2023/07/27 00:46:04;;;;;;;0.10;0.10;;;;;;;17.19;nan;100072.63;5044823;28;20041;-79
2023/07/27 00:48:30;;;;;;;0.10;0.10;;;;;;;17.18;nan;100061.13;5047768;28;20044;-80
2023/07/27 00:50:56;;;;;;;0.10;0.10;;;;;;;17.19;nan;100057.41;5040631;28;20059;-80
2023/07/27 00:53:21;;;;;;;0.10;0.10;;;;;;;;;;5049705;28;20025;-79
2023/07/27 00:55:46;;;;;;;;;;;;;;;;;;5048215;28;20128;-79
2023/07/27 00:58:11;;;;;;;;;;;;;;;;;;5039216;28;19916;-80
2023/07/27 01:00:36;;;;;;;;;;;;;;;;;;5055844;28;19932;-79
2023/07/27 01:03:03;;;;;;;0.10;0.10;;;;;;;;;;5035899;28;19924;-79
2023/07/27 01:05:29;;;;;;;0.10;0.10;;;;;;;;;;5044117;28;20553;-79
2023/07/27 01:07:54;;;;;;;0.10;0.10;;;;;;;17.45;nan;100038.84;5047108;28;20989;-79
2023/07/27 01:10:23;;;;;;;0.10;0.10;;;;;;;17.36;nan;100031.06;5045151;28;20097;-80
2023/07/27 01:12:58;;;;;;;0.10;0.10;;;;;;;17.25;nan;100018.34;5041184;28;20029;-80
2023/07/27 01:15:30;;;;;;;0.10;0.10;;;;;;;17.25;nan;100018.34;5050801;28;20030;-80
2023/07/27 01:17:58;;;;;;;0.10;0.10;;;;;;;17.20;nan;100032.31;5055189;28;20096;-79
2023/07/27 01:20:23;;;;;;;;;;;;;;;;;;5052579;28;20471;-80
2023/07/27 01:22:48;;;;;;;;;;;;;;;17.12;nan;100013.03;5055420;28;19919;-80
2023/07/27 01:25:13;;;;;;;0.10;0.10;;;;;;;;;;5049598;28;20279;-80
2023/07/27 01:27:39;;;;;;;0.10;0.10;;;;;;;;;;5038484;28;20048;-80
2023/07/27 01:30:18;;;;;;;0.10;0.10;;;;;;;;;;5054085;28;20514;-80
2023/07/27 01:32:46;;;;;;;0.20;0.20;;;;;;;;;;5050723;28;20820;-80
2023/07/27 01:35:14;;;;;;;0.10;0.10;;;;;;;;;;5035962;28;20029;-80
2023/07/27 01:37:43;;;;;;;0.10;0.10;;;;;;;17.04;nan;100005.22;5049567;28;20037;-80
2023/07/27 01:40:09;;;;;;;0.10;0.10;;;;;;;;;;5046737;28;20025;-79
2023/07/27 01:42:35;;;;;;;0.10;0.10;;;;;;;;;;5042285;28;20076;-79
2023/07/27 01:45:03;;;;;;;0.10;0.10;;;;;;;17.06;nan;100104.66;5052096;28;20510;-79
2023/07/27 01:47:29;;;;;;;0.20;0.20;;;;;;;;;;5054416;28;20048;-79
2023/07/27 01:49:55;;;;;;;0.10;0.10;;;;;;;;;;5041230;28;20851;-80
2023/07/27 01:52:22;;;;;;;0.10;0.10;;;;;;;17.10;nan;99994.53;5050897;28;20094;-79
2023/07/27 01:54:48;;;;;;;;;;;;;;;17.04;nan;99990.03;5047104;28;20040;-80
2023/07/27 01:57:14;;;;;;;0.10;0.10;;;;;;;;;;5043831;28;19920;-79
2023/07/27 01:59:39;;;;;;;0.10;0.10;;;;;;;;;;5051650;28;20447;-82
2023/07/27 02:02:06;;;;;;;0.10;0.10;;;;;;;;;;5052002;28;20140;-81
2023/07/27 02:04:31;;;;;;;0.10;0.10;;;;;;;;;;5051959;28;20517;-79
2023/07/27 02:06:56;;;;;;;0.10;0.10;;;;;;;;;;5045465;28;20534;-79
2023/07/27 02:09:21;;;;;;;0.10;0.10;;;;;;;;;;5054378;28;20913;-81
2023/07/27 02:11:53;;;;;;;0.10;0.10;;;;;;;17.33;nan;99964.69;5060586;28;20072;-79
2023/07/27 02:14:23;;;;;;;0.10;0.10;;;;;;;;;;5049908;28;20033;-79
2023/07/27 02:16:54;;;;;;;0.10;0.10;;;;;;;17.16;nan;99961.66;5048987;28;20033;-79
2023/07/27 02:19:21;;;;;;;;;;;;;;;17.05;nan;99946.25;5052517;28;20036;-79
2023/07/27 02:21:46;;;;;;;;;;;;;;;;;;5047585;28;19974;-79
2023/07/27 02:24:11;;;;;;;;;;;;;;;;;;5049451;28;19920;-79
2023/07/27 02:26:36;;;;;;;;;;;;;;;;;;5048564;28;19921;-80
2023/07/27 02:29:01;;;;;;;;;;;;;;;;;;5050952;28;19927;-79
2023/07/27 02:31:27;;;;;;;0.10;0.10;;;;;;;;;;5049092;28;19917;-80
2023/07/27 02:33:52;;;;;;;0.20;0.20;;;;;;;;;;5053803;28;20059;-80
2023/07/27 02:36:17;;;;;;;0.10;0.10;;;;;;;;;;5042317;28;20935;-81
2023/07/27 02:38:42;;;;;;;0.10;0.10;;;;;;;;;;5047479;28;20424;-81
2023/07/27 02:41:09;;;;;;;;;;;;;;;17.05;nan;99943.59;5050714;28;20032;-79
2023/07/27 02:43:34;;;;;;;0.10;0.10;;;;;;;;;;5051828;28;19999;-80
2023/07/27 02:45:59;;;;;;;0.10;0.10;;;;;;;;;;5053636;28;20063;-80
2023/07/27 02:48:25;;;;;;;0.10;0.10;;;;;;;;;;5050687;28;20049;-80
2023/07/27 02:50:51;;;;;;;;;;;;;;;16.99;nan;99917.69;5051094;28;20033;-79
2023/07/27 02:53:16;;;;;;;0.10;0.10;;;;;;;;;;5052443;28;19916;-80
2023/07/27 02:55:41;;;;;;;0.10;0.10;;;;;;;16.90;nan;99933.13;5050862;28;20559;-79
2023/07/27 02:58:06;;;;;;;0.10;0.10;;;;;;;;;;5052204;28;20048;-79
2023/07/27 03:00:31;;;;;;;;;;;;;;;16.90;nan;99930.47;5053369;28;20804;-80
2023/07/27 03:02:56;;;;;;;;;;;;;;;16.89;nan;99923.47;5046785;28;19966;-79
2023/07/27 03:05:22;;;;;;;;;;;;;;;;;;5032636;28;19913;-79
2023/07/27 03:07:47;;;;;;;0.10;0.10;;;;;;;;;;5051022;28;19964;-79
2023/07/27 03:10:12;;;;;;;0.10;0.10;;;;;;;;;;5051196;28;20532;-79
2023/07/27 03:12:37;;;;;;;0.20;0.20;;;;;;;;;;5044073;28;20034;-79
2023/07/27 03:15:02;;;;;;;0.10;0.10;;;;;;;;;;5050628;28;20056;-79
2023/07/27 03:17:27;;;;;;;0.10;0.10;;;;;;;;;;5043746;28;20052;-80
2023/07/27 03:19:53;;;;;;;0.10;0.10;;;;;;;17.15;nan;99932.47;5034902;28;20412;-82
2023/07/27 03:22:18;;;;;;;0.10;0.10;;;;;;;;;;5047493;28;20098;-79
2023/07/27 03:24:43;;;;;;;0.10;0.10;;;;;;;;;;5050052;28;20799;-79
2023/07/27 03:27:08;;;;;;;0.10;0.10;;;;;;;;;;5051540;28;20094;-79
2023/07/27 03:29:33;;;;;;;0.20;0.20;;;;;;;;;;5050871;28;20033;-79
2023/07/27 03:31:59;;;;;;;0.10;0.10;;;;;;;17.06;nan;99921.16;5047994;28;20040;-79
2023/07/27 03:34:24;;;;;;;0.10;0.10;;;;;;;17.03;nan;99918.94;5034602;28;20048;-79
2023/07/27 03:36:49;;;;;;;;;;;;;;;16.97;nan;99915.25;5043093;28;20459;-79
2023/07/27 03:39:14;;;;;;;;;;;;;;;16.94;nan;99909.50;5049973;28;19917;-79
2023/07/27 03:41:39;;;;;;;;;;;;;;;16.91;nan;99899.22;5051088;28;19913;-79
2023/07/27 03:44:11;;;;;;;0.10;0.10;;;;;;;16.90;nan;99902.91;5047524;28;19912;-79
2023/07/27 03:46:36;;;;;;;0.10;0.10;;;;;;;;;;5048101;28;20112;-79
2023/07/27 03:49:01;;;;;;;0.10;0.10;;;;;;;;;;5038719;28;20454;-79
2023/07/27 03:51:26;;;;;;;0.10;0.10;;;;;;;16.88;nan;99932.50;5041019;28;20298;-79
2023/07/27 03:53:52;;;;;;;0.10;0.10;;;;;;;;;;5042956;28;20033;-79
2023/07/27 03:56:17;;;;;;;0.20;0.20;;;;;;;;;;5042227;28;20291;-79
2023/07/27 03:58:42;;;;;;;0.10;0.10;;;;;;;;;;5050028;28;20279;-79
2023/07/27 04:01:07;;;;;;;0.20;0.20;;;;;;;;;;5035232;28;20269;-79
2023/07/27 04:03:33;;;;;;;0.10;0.10;;;;;;;17.10;nan;99903.69;5038097;28;20487;-80
2023/07/27 04:05:58;;;;;;;0.10;0.10;;;;;;;17.13;nan;99903.28;5050513;28;20029;-79
2023/07/27 04:08:24;;;;;;;0.10;0.10;;;;;;;17.17;nan;99893.81;5047791;28;20036;-79
2023/07/27 04:10:49;;;;;;;0.10;0.10;;;;;;;;;;5049611;28;20490;-80
2023/07/27 04:13:14;;;;;;;0.10;0.10;;;;;;;;;;5047900;28;20283;-80
2023/07/27 04:15:39;;;;;;;0.10;0.10;;;;;;;;;;5039552;28;20506;-79
2023/07/27 04:18:05;;;;;;;0.10;0.10;;;;;;;;;;5042735;28;20555;-80
2023/07/27 04:20:30;;;;;;;0.10;0.10;;;;;;;;;;5044992;28;20450;-80
2023/07/27 04:22:56;;;;;;;0.00;0.00;;;;;;;;;;5051389;28;20432;-82
2023/07/27 04:25:21;;;;;;;0.10;0.10;;;;;;;;;;5047275;28;20417;-80
2023/07/27 04:27:46;;;;;;;0.10;0.10;;;;;;;;;;5051983;28;20057;-81
2023/07/27 04:30:11;;;;;;;0.10;0.10;;;;;;;17.73;nan;99880.81;5035008;28;20280;-79
2023/07/27 04:32:36;;;;;;;0.10;0.10;;;;;;;;;;5050305;28;20032;-80
2023/07/27 04:35:02;;;;;;;0.10;0.10;;;;;;;;;;5048014;28;20546;-80
2023/07/27 04:37:27;;;;;;;0.10;0.10;;;;;;;;;;5045304;28;20518;-80
2023/07/27 04:39:52;;;;;;;0.10;0.10;;;;;;;;;;5041344;28;20682;-80
2023/07/27 04:42:17;;;;;;;;;;;;;;;17.85;nan;99895.19;5041129;28;20033;-80
2023/07/27 04:44:42;;;;;;;;;;;;;;;17.77;nan;99882.84;5047008;28;20470;-80
2023/07/27 04:47:08;;;;;;;;;;;;;;;17.61;nan;99884.19;5044979;28;19913;-80
2023/07/27 04:49:33;;;;;;;;;;;;;;;17.58;nan;99895.28;5038655;28;19927;-80
2023/07/27 04:51:58;;;;;;;;;;;;;;;;;;5045012;28;19916;-81
2023/07/27 04:54:23;;;;;;;;;;;;;;;;;;5050597;28;19959;-81
2023/07/27 04:56:49;;;;;;;0.20;0.20;;;;;;;;;;5050852;28;19920;-81
2023/07/27 04:59:14;;;;;;;;;;;;;;;17.38;nan;99882.03;5043288;28;20406;-80
2023/07/27 05:01:39;;;;;;;;;;;;;;;17.33;nan;99878.38;5051280;28;19970;-80
2023/07/27 05:04:04;;;;;;;0.20;0.20;;;;;;;;;;5050223;28;20305;-80
2023/07/27 05:06:29;;;;;;;0.20;0.20;;;;;;;;;;5044818;28;20049;-80
2023/07/27 05:08:55;;;;;;;0.10;0.10;;;;;;;22.71;100.00;65960.16;5044998;28;20412;-80
2023/07/27 05:11:20;;;;;;;0.10;0.10;;;;;;;;;;5043476;28;20276;-80
2023/07/27 05:13:45;;;;;;;;;;;;;;;;;;5053914;28;20041;-81
2023/07/27 05:16:10;;;;;;;0.10;0.10;;;;;;;;;;5052727;28;19948;-80
2023/07/27 05:18:35;;;;;;;0.20;0.20;;;;;;;16.83;nan;99876.25;5048416;28;20046;-80
2023/07/27 05:21:00;;;;;;;0.10;0.10;;;;;;;;;;5046719;28;20045;-80
2023/07/27 05:23:26;;;;;;;0.10;0.10;;;;;;;;;;5041635;28;20779;-80
2023/07/27 05:25:52;;;;;;;0.10;0.10;;;;;;;;;;5047143;28;20611;-80
2023/07/27 05:28:17;;;;;;;0.10;0.10;;;;;;;;;;5051222;28;20419;-81
2023/07/27 05:30:42;;;;;;;0.10;0.10;;;;;;;;;;5042182;28;20410;-83
2023/07/27 05:33:07;;;;;;;0.10;0.10;;;;;;;;;;5048910;28;20417;-80
2023/07/27 05:35:33;;;;;;;0.00;0.00;;;;;;;18.04;nan;99914.81;5050014;28;20424;-82
2023/07/27 05:37:58;;;;;;;0.10;0.10;;;;;;;;;;5051637;28;20025;-81
2023/07/27 05:40:23;;;;;;;;;;;;;;;18.03;nan;99886.44;5044258;28;20048;-81
2023/07/27 05:42:48;;;;;;;;;;;;;;;18.03;nan;99875.72;5043299;28;20071;-80
2023/07/27 05:45:13;;;;;;;;;;;;;;;18.01;nan;99877.81;5051137;28;19962;-82
2023/07/27 05:47:39;;;;;;;;;;;;;;;17.92;nan;99884.44;5054884;28;19913;-80
2023/07/27 05:50:04;;;;;;;;;;;;;;;17.73;nan;99876.31;5043386;28;20401;-80
2023/07/27 05:52:30;;;;;;;;;;;;;;;17.75;nan;99876.91;5046395;28;19916;-80
2023/07/27 05:54:55;;;;;;;;;;;;;;;17.77;nan;99866.00;5047449;28;19962;-81
2023/07/27 05:57:20;;;;;;;;;;;;;;;17.60;nan;99866.50;5048112;28;20397;-80
2023/07/27 05:59:45;;;;;;;;;;;;;;;17.45;nan;99873.16;5047563;28;19940;-80
2023/07/27 06:02:10;;;;;;;;;;;;;;;;;;5042733;28;19913;-81
2023/07/27 06:04:35;;;;;;;;;;;;;;;16.99;nan;99858.94;5053257;28;19923;-80
2023/07/27 06:07:00;;;;;;;;;;;;;;;16.86;nan;99858.97;5039977;28;19919;-80
2023/07/27 06:09:26;;;;;;;;;;;;;;;16.77;nan;99845.00;5044296;28;19956;-81
2023/07/27 06:11:51;;;;;;;;;;;;;;;;;;5037373;28;20034;-80
2023/07/27 06:14:16;;;;;;;0.20;0.20;;;;;;;;;;5045162;28;19990;-80
2023/07/27 06:16:42;;;;;;;;;;;;;;;16.70;nan;99834.31;5048309;28;20050;-81
2023/07/27 06:19:14;;;;;;;;;;;;;;;;;;5054526;28;19925;-80
2023/07/27 06:21:40;;;;;;;;;;;;;;;17.03;nan;99846.81;5053280;28;19917;-81
2023/07/27 06:24:05;;;;;;;;;;;;;;;17.06;nan;99833.03;5057628;28;19958;-81
2023/07/27 06:26:30;;;;;;;;;;;;;;;;;;5058440;28;19920;-81
2023/07/27 06:28:56;;;;;;;;;;;;;;;17.07;nan;99845.34;5054068;28;20294;-81
2023/07/27 06:31:21;;;;;;;;;;;;;;;;;;5051295;28;20469;-81
2023/07/27 06:33:46;;;;;;;;;;;;;;;;;;5056206;28;20160;-81
2023/07/27 06:36:12;;;;;;;;;;;;;;;;;;5064642;28;19923;-81
2023/07/27 06:38:41;;;;;;;;;;;;;;;17.07;nan;99817.84;5061130;28;19916;-81
2023/07/27 06:41:06;;;;;;;0.10;0.10;;;;;;;;;;5052813;28;19944;-81
2023/07/27 06:43:31;;;;;;;0.10;0.10;;;;;;;;;;5045098;28;20413;-81
2023/07/27 06:45:57;;;;;;;0.10;0.10;;;;;;;;;;5050108;28;20397;-81
2023/07/27 06:48:22;;;;;;;0.10;0.10;;;;;;;;;;5058365;28;20394;-81
2023/07/27 06:50:47;;;;;;;0.10;0.10;;;;;;;;;;5039727;28;20406;-80
2023/07/27 06:53:13;;;;;;;0.10;0.10;;;;;;;16.91;nan;99819.94;5059737;28;20035;-82
2023/07/27 06:55:38;;;;;;;0.10;0.10;;;;;;;;;;5060056;28;20044;-81
2023/07/27 06:58:04;;;;;;;0.10;0.10;;;;;;;;;;5056904;28;20471;-81
2023/07/27 07:00:31;;;;;;;0.10;0.10;;;;;;;;;;5056993;28;20395;-81
2023/07/27 07:02:57;;;;;;;0.10;0.10;;;;;;;;;;5049753;28;20420;-81
2023/07/27 07:05:22;;;;;;;0.07;0.07;;;;;;;;;;5041581;28;20399;-81
2023/07/27 07:07:48;;;;;;;0.10;0.10;;;;;;;;;;5059985;28;20431;-82
2023/07/27 07:10:13;;;;;;;0.00;0.00;;;;;;;;;;5054931;28;20408;-81
2023/07/27 07:12:38;;;;;;;0.10;0.10;;;;;;;;;;5050580;28;20490;-81
2023/07/27 07:15:04;;;;;;;0.10;0.10;;;;;;;;;;5065386;28;20399;-81
2023/07/27 07:17:30;;;;;;;0.03;0.03;;;;;;;;;;5053637;28;20528;-80
2023/07/27 07:19:56;;;;;;;0.00;0.00;;;;;;;;;;5056631;28;20467;-80
2023/07/27 07:22:21;;;;;;;0.10;0.10;;;;;;;;;;5048765;28;20409;-80
2023/07/27 07:24:47;;;;;;;0.00;0.00;;;;;;;;;;5057538;28;20948;-81
2023/07/27 07:27:12;;;;;;;0.03;0.03;;;;;;;;;;5058570;28;20402;-80
2023/07/27 07:29:37;;;;;;;0.00;0.00;;;;;;;;;;5050555;28;20419;-80
2023/07/27 07:32:02;;;;;;;0.00;0.00;;;;;;;;;;5057145;28;21083;-80
2023/07/27 07:34:33;;;;;;;0.00;0.00;;;;;;;;;;5049640;28;20402;-80
2023/07/27 07:36:59;;;;;;;0.00;0.00;;;;;;;;;;5052239;28;20402;-80
2023/07/27 07:39:25;;;;;;;0.00;0.00;;;;;;;;;;5042880;28;20419;-80
2023/07/27 07:41:53;;;;;;;0.00;0.00;;;;;;;;;;5049217;28;20449;-80
2023/07/27 07:44:18;;;;;;;0.00;0.00;;;;;;;;;;5057862;28;20397;-80
2023/07/27 07:46:43;;;;;;;0.00;0.00;;;;;;;;;;5045930;28;20413;-80
2023/07/27 07:49:08;;;;;;;0.10;0.10;;;;;;;;;;5049812;28;20420;-80
2023/07/27 07:51:34;;;;;;;0.00;0.00;;;;;;;;;;5048607;28;20399;-81
2023/07/27 07:53:59;;;;;;;0.10;0.10;;;;;;;;;;5052661;28;20887;-80
2023/07/27 07:56:25;;;;;;;0.00;0.00;;;;;;;-145.28;100.00;65951.03;5054577;28;20407;-80
2023/07/27 07:58:51;;;;;;;0.00;0.00;;;;;;;;;;5056086;28;20417;-80
2023/07/27 08:01:16;;;;;;;0.00;0.00;;;;;;;;;;5054797;28;20390;-80
2023/07/27 08:03:41;;;;;;;0.00;0.00;;;;;;;;;;5055260;28;20939;-80
2023/07/27 08:06:10;;;;;;;0.00;0.00;;;;;;;;;;5051943;28;20409;-80
2023/07/27 08:08:35;;;;;;;0.00;0.00;;;;;;;;;;5053138;28;20808;-81
2023/07/27 08:11:02;;;;;;;0.10;0.10;;;;;;;;;;5046703;28;20438;-81
2023/07/27 08:13:28;;;;;;;0.00;0.00;;;;;;;;;;5042151;28;20448;-80
2023/07/27 08:15:54;;;;;;;0.00;0.00;;;;;;;;;;5054945;28;20768;-80
2023/07/27 08:18:19;;;;;;;0.00;0.00;;;;;;;;;;5051581;28;20417;-81
2023/07/27 08:20:44;;;;;;;0.00;0.00;;;;;;;;;;5044589;28;20455;-80
2023/07/27 08:23:10;;;;;;;0.00;0.00;;;;;;;;;;5045834;28;20409;-81
2023/07/27 08:25:39;;;;;;;0.00;0.00;;;;;;;;;;5052237;28;20887;-80
2023/07/27 08:28:04;;;;;;;0.00;0.00;;;;;;;;;;5042914;28;20438;-81
2023/07/27 08:30:30;;;;;;;0.00;0.00;;;;;;;;;;5048007;28;20409;-81
2023/07/27 08:32:55;;;;;;;0.03;0.03;;;;;;;;;;5053640;28;20406;-81
2023/07/27 08:35:20;;;;;;;0.00;0.00;;;;;;;;;;5054273;28;20404;-81
2023/07/27 08:37:46;;;;;;;0.00;0.00;;;;;;;;;;5054140;28;20410;-82
2023/07/27 08:40:11;;;;;;;0.10;0.10;;;;;;;;;;5041141;28;20622;-81
2023/07/27 08:42:36;;;;;;;0.00;0.00;;;;;;;;;;5036897;28;20438;-81
2023/07/27 08:45:02;;;;;;;0.00;0.00;;;;;;;;;;5053996;28;20566;-81
2023/07/27 08:47:28;;;;;;;0.00;0.00;;;;;;;;;;5037152;28;20412;-81
2023/07/27 08:49:54;;;;;;;0.00;0.00;;;;;;;;;;5050058;28;20809;-81
2023/07/27 08:52:22;;;;;;;0.00;0.00;;;;;;;;;;5049314;28;20490;-81
2023/07/27 08:54:48;;;;;;;0.08;0.08;;;;;;;;;;5048524;28;20474;-82
2023/07/27 08:57:13;;;;;;;0.10;0.10;;;;;;;;;;5058336;28;20405;-82
2023/07/27 08:59:39;;;;;;;0.10;0.10;;;;;;;;;;5058105;28;20417;-82
2023/07/27 09:02:04;;;;;;;0.03;0.03;;;;;;;;;;5051975;28;20409;-83
2023/07/27 09:04:30;;;;;;;0.00;0.00;;;;;;;;;;5040458;28;20395;-82
2023/07/27 09:06:55;;;;;;;0.00;0.00;;;;;;;;;;5052019;28;20461;-82
2023/07/27 09:09:23;;;;;;;0.10;0.10;;;;;;;;;;5054062;28;20522;-83
2023/07/27 09:11:49;;;;;;;0.10;0.10;;;;;;;;;;5050247;28;20426;-83
2023/07/27 09:14:16;;;;;;;0.00;0.00;;;;;;;;;;5037746;28;20411;-82
2023/07/27 09:16:42;;;;;;;0.10;0.10;;;;;;;;;;5053735;28;20436;-81
2023/07/27 09:19:09;;;;;;;0.00;0.00;;;;;;;;;;5055293;28;20415;-82
2023/07/27 09:21:35;;;;;;;;;;;;;;;;;;5046972;28;20557;-82
2023/07/27 09:24:00;;;;;;;;;;;;;;;15.85;nan;99740.88;5044956;28;19917;-82
2023/07/27 09:26:25;;;;;;;;;;;;;;;;;;5054603;28;19975;-82
2023/07/27 09:28:52;;;;;;;;;;;;;;;15.90;nan;99738.41;5054914;28;19934;-83
2023/07/27 09:31:17;;;;;;;;;;;;;;;;;;5055581;28;20332;-82
2023/07/27 09:33:43;;;;;;;;;;;;;;;16.09;nan;99742.09;5046124;28;20429;-82
2023/07/27 09:36:12;;;;;;;;;;;;;;;16.20;nan;99739.78;5044673;28;19920;-83
2023/07/27 09:38:37;;;;;;;0.10;0.10;;;;;;;;;;5050040;28;19999;-82
2023/07/27 09:41:07;;;;;;;0.10;0.10;;;;;;;;;;5049378;28;20452;-81
2023/07/27 09:43:36;;;;;;;0.10;0.10;;;;;;;;;;5053645;28;21060;-81
2023/07/27 09:46:01;;;;;;;0.10;0.10;;;;;;;;;;5056380;28;20484;-82
2023/07/27 09:48:28;;;;;;;0.10;0.10;;;;;;;;;;5057206;28;20417;-82
2023/07/27 09:50:56;;;;;;;0.10;0.10;;;;;;;;;;5056257;28;20405;-83
2023/07/27 09:53:22;;;;;;;;;;;;;;;;;;5074226;28;20037;-81
2023/07/27 09:55:49;;;;;;;0.10;0.10;;;;;;;;;;5048004;28;19976;-82
2023/07/27 09:58:14;;;;;;;0.20;0.20;;;;;;;;;;5045322;28;20052;-81
2023/07/27 10:00:40;;;;;;;0.10;0.10;;;;;;;;;;5051095;28;20067;-81
2023/07/27 10:03:05;;;;;;;0.10;0.10;;;;;;;;;;5042202;28;20415;-82
2023/07/27 10:05:31;;;;;;;0.10;0.10;;;;;;;16.92;nan;99728.13;5052012;28;20128;-82
2023/07/27 10:07:56;;;;;;;;;;;;;;;;;;5056614;28;20045;-82
2023/07/27 10:10:26;;;;;;;0.10;0.10;;;;;;;;;;5052956;28;20021;-81
2023/07/27 10:12:55;;;;;;;0.10;0.10;;;;;;;17.18;nan;99735.19;5045982;28;20394;-81
2023/07/27 10:15:20;;;;;;;;;;;;;;;;;;5048603;28;20052;-81
2023/07/27 10:17:48;;;;;;;;;;;;;;;17.23;nan;99728.34;5044672;28;19921;-81
2023/07/27 10:20:21;;;;;;;;;;;;;;;17.18;nan;99702.28;5049888;28;19913;-82
2023/07/27 10:22:50;;;;;;;0.10;0.10;;;;;;;17.15;nan;99710.72;5067951;28;19916;-81
2023/07/27 10:25:16;;;;;;;0.10;0.10;;;;;;;;;;5052879;28;20032;-81
2023/07/27 10:27:54;;;;;;;0.10;0.10;;;;;;;;;;5053975;28;20450;-81
2023/07/27 10:30:21;;;;;;;0.10;0.10;;;;;;;;;;5050306;28;20471;-80
2023/07/27 10:33:06;;;;;;;0.10;0.10;;;;;;;;;;5044302;28;20418;-81
2023/07/27 10:35:51;;;;;;;0.10;0.10;;;;;;;;;;5050149;28;20389;-81
2023/07/27 10:38:32;;;;;;;0.10;0.10;;;;;;;;;;5050492;28;20037;-81
2023/07/27 10:40:58;;;;;;;;;;;;;;;;;;5041120;28;20765;-80
2023/07/27 10:43:23;;;;;;;0.10;0.10;;;;;;;;;;5052537;28;19921;-80
2023/07/27 10:45:54;;;;;;;0.13;0.13;;;;;;;;;;5050460;28;20033;-81
2023/07/27 10:48:19;;;;;;;0.10;0.10;;;;;;;;;;5052765;28;20063;-81
2023/07/27 10:50:44;;;;;;;0.10;0.10;;;;;;;;;;5050347;28;20060;-81
2023/07/27 10:53:10;;;;;;;0.10;0.10;;;;;;;16.14;nan;99702.25;5049856;28;20536;-81
2023/07/27 10:55:40;;;;;;;0.20;0.20;;;;;;;;;;5049528;28;20049;-81
2023/07/27 10:58:05;;;;;;;0.10;0.10;;;;;;;;;;5050349;28;20044;-81
2023/07/27 11:00:34;;;;;;;0.10;0.10;;;;;;;;;;5046630;28;20037;-81
2023/07/27 11:03:00;;;;;;;0.10;0.10;;;;;;;;;;5054858;28;20029;-81
2023/07/27 11:05:25;;;;;;;0.20;0.20;;;;;;;;;;5053032;28;20059;-82
2023/07/27 11:07:50;;;;;;;0.10;0.10;;;;;;;;;;5047335;28;20095;-82
2023/07/27 11:10:16;;;;;;;0.10;0.10;;;;;;;;;;5048938;28;20072;-81
2023/07/27 11:12:46;;;;;;;0.10;0.10;;;;;;;;;;5053130;28;20044;-83
2023/07/27 11:15:18;;;;;;;0.10;0.10;;;;;;;;;;5058735;28;20041;-82
2023/07/27 11:17:44;;;;;;;0.20;0.20;;;;;;;;;;5057107;28;20056;-83
2023/07/27 11:20:10;;;;;;;0.10;0.10;;;;;;;;;;5052345;28;20038;-81
2023/07/27 11:22:36;;;;;;;0.20;0.20;;;;;;;;;;5047688;28;20496;-83
2023/07/27 11:25:05;;;;;;;0.10;0.10;;;;;;;;;;5056267;28;20048;-82
2023/07/27 11:27:31;;;;;;;0.20;0.20;;;;;;;;;;5050504;28;20037;-83
2023/07/27 11:30:00;;;;;;;0.20;0.20;;;;;;;16.11;nan;99660.03;5048687;28;20033;-82
2023/07/27 11:32:26;;;;;;;0.10;0.10;;;;;;;;;;5049153;28;20422;-82
2023/07/27 11:34:55;;;;;;;0.10;0.10;;;;;;;;;;5054824;28;20056;-84
2023/07/27 11:37:20;;;;;;;0.10;0.10;;;;;;;;;;5056064;28;20080;-84
2023/07/27 11:39:46;;;;;;;0.15;0.15;;;;;;;16.26;nan;99681.09;5055129;28;20191;-82
2023/07/27 11:42:13;;;;;;;0.13;0.13;;;;;;;16.30;nan;99647.66;5049808;28;20517;-84
2023/07/27 11:44:39;;;;;;;0.10;0.10;;;;;;;;;;5054829;28;20400;-83
2023/07/27 11:47:04;;;;;;;0.13;0.13;;;;;;;;;;5052561;28;20033;-82
2023/07/27 11:49:30;;;;;;;0.10;0.10;;;;;;;;;;5053202;28;20048;-83
2023/07/27 11:51:56;;;;;;;0.20;0.20;;;;;;;;;;5054964;28;20115;-83
2023/07/27 11:54:22;;;;;;;0.20;0.20;;;;;;;;;;5052978;28;20096;-83
2023/07/27 11:56:52;;;;;;;0.17;0.17;;;;;;;;;;5059408;28;20498;-83
2023/07/27 11:59:17;;;;;;;0.10;0.10;;;;;;;;;;5048051;28;20044;-83
2023/07/27 12:01:43;;;;;;;0.10;0.10;;;;;;;;;;5052100;28;20041;-83
2023/07/27 12:04:11;;;;;;;0.10;0.10;;;;;;;16.68;nan;99734.94;5055414;28;20040;-83
2023/07/27 12:06:36;;;;;;;0.10;0.10;;;;;;;;;;5055805;28;20065;-83
2023/07/27 12:09:04;;;;;;;0.10;0.10;;;;;;;;;;5056214;28;20041;-83
2023/07/27 12:11:29;;;;;;;0.10;0.10;;;;;;;;;;5051622;28;20064;-84
2023/07/27 12:13:55;;;;;;;0.13;0.13;;;;;;;16.63;nan;99652.00;5052295;28;20037;-83
2023/07/27 12:16:20;;;;;;;0.10;0.10;;;;;;;;;;5055428;28;20037;-83
2023/07/27 12:18:49;;;;;;;0.10;0.10;;;;;;;;;;5056643;28;20584;-84
2023/07/27 12:21:14;;;;;;;0.20;0.20;;;;;;;;;;5056822;28;20037;-83
2023/07/27 12:23:39;;;;;;;0.20;0.20;;;;;;;;;;5056813;28;20489;-83
2023/07/27 12:26:05;;;;;;;0.10;0.10;;;;;;;;;;5049012;28;20057;-83
2023/07/27 12:28:33;;;;;;;0.10;0.10;;;;;;;;;;5049842;28;20059;-84
2023/07/27 12:30:59;;;;;;;0.13;0.13;;;;;;;;;;5056875;28;20102;-84
2023/07/27 12:33:26;;;;;;;0.20;0.20;;;;;;;;;;5053309;28;20057;-83
2023/07/27 12:35:54;;;;;;;0.15;0.15;;;;;;;;;;5046374;28;20037;-83
2023/07/27 12:38:19;;;;;;;0.10;0.10;;;;;;;;;;5045278;28;20121;-83
2023/07/27 12:40:46;;;;;;;0.20;0.20;;;;;;;;;;5053151;28;20518;-83
2023/07/27 12:43:11;;;;;;;0.10;0.10;;;;;;;;;;5054318;28;20185;-83
2023/07/27 12:45:37;;;;;;;0.20;0.20;;;;;;;16.77;nan;99640.22;5055992;28;20159;-83
2023/07/27 12:48:03;;;;;;;0.10;0.10;;;;;;;16.73;nan;99641.72;5055593;28;20052;-83
2023/07/27 12:50:28;;;;;;;0.10;0.10;;;;;;;;;;5052892;28;20033;-83
2023/07/27 12:52:54;;;;;;;0.10;0.10;;;;;;;;;;5072614;28;20422;-83
2023/07/27 12:55:19;;;;;;;0.10;0.10;;;;;;;;;;5058682;28;20090;-83
2023/07/27 12:57:45;;;;;;;0.10;0.10;;;;;;;;;;5060758;28;20044;-84
2023/07/27 13:00:14;;;;;;;0.10;0.10;;;;;;;;;;5059329;28;20041;-83
2023/07/27 13:02:39;;;;;;;0.10;0.10;;;;;;;;;;5056761;28;20045;-84
2023/07/27 13:05:12;;;;;;;0.10;0.10;;;;;;;18.28;nan;99640.22;5055968;28;20115;-84
2023/07/27 13:07:37;;;;;;;0.10;0.10;;;;;;;;;;5054286;28;20045;-83
2023/07/27 13:10:02;;;;;;;0.10;0.10;;;;;;;18.50;nan;99661.19;5052534;28;20049;-83
2023/07/27 13:12:27;;;;;;;0.10;0.10;;;;;;;22.39;100.00;71282.69;5052969;28;20274;-84
2023/07/27 13:14:53;;;;;;;0.10;0.10;;;;;;;;;;5054284;28;20047;-84
2023/07/27 13:17:18;;;;;;;0.17;0.17;;;;;;;;;;5054797;28;20665;-83
2023/07/27 13:19:43;;;;;;;0.10;0.10;;;;;;;;;;5051000;28;20092;-83
2023/07/27 13:22:08;;;;;;;0.10;0.10;;;;;;;18.29;nan;99643.75;5051938;28;21494;-83
2023/07/27 13:24:33;;;;;;;0.10;0.10;;;;;;;;;;5052403;28;20033;-83
2023/07/27 13:26:59;;;;;;;0.10;0.10;;;;;;;18.19;nan;99663.00;5051316;28;20108;-83
2023/07/27 13:29:30;;;;;;;0.10;0.10;;;;;;;;;;5051739;28;20037;-83
2023/07/27 13:31:55;;;;;;;0.10;0.10;;;;;;;;;;5048072;28;20044;-83
2023/07/27 13:34:20;;;;;;;0.10;0.10;;;;;;;;;;5051932;28;20045;-83
2023/07/27 13:36:45;;;;;;;0.10;0.10;;;;;;;;;;5052996;28;20287;-83
2023/07/27 13:39:10;;;;;;;0.10;0.10;;;;;;;;;;5058488;28;20462;-83
2023/07/27 13:41:35;;;;;;;0.10;0.10;;;;;;;;;;5057221;28;20048;-84
2023/07/27 13:44:01;;;;;;;0.10;0.10;;;;;;;18.40;nan;99618.88;5057524;28;20117;-83
2023/07/27 13:46:26;;;;;;;0.10;0.10;;;;;;;-144.63;100.00;87209.66;5046796;28;20091;-83
2023/07/27 13:48:51;;;;;;;0.10;0.10;;;;;;;;;;5054719;28;20283;-83
2023/07/27 13:51:17;;;;;;;0.10;0.10;;;;;;;18.80;nan;99613.84;5052427;28;20064;-84
2023/07/27 13:53:42;;;;;;;0.10;0.10;;;;;;;18.94;nan;99635.91;5060174;28;20505;-83
2023/07/27 13:56:08;;;;;;;0.10;0.10;;;;;;;;;;5051702;28;20048;-83
2023/07/27 13:58:33;;;;;;;0.10;0.10;;;;;;;;;;5049004;28;20630;-83
2023/07/27 14:00:58;;;;;;;0.10;0.10;;;;;;;19.51;nan;99620.16;5054733;28;20057;-83